sensor_id;sensor_type;location;lat;lon;timestamp;P1;durP1;ratioP1;P2;durP2;ratioP2
39276;SDS011;63149;48.086;-1.606;2023-04-24T05:01:15;10.10;;;4.70;;
39276;SDS011;63149;48.086;-1.606;2023-04-24T05:03:43;10.50;;;5.18;;
39276;SDS011;63149;48.086;-1.606;2023-04-24T05:06:10;11.13;;;4.90;;
39276;SDS011;63149;48.086;-1.606;2023-04-24T05:08:37;11.60;;;4.97;;
39276;SDS011;63149;48.086;-1.606;2023-04-24T05:11:05;13.65;;;4.78;;
39276;SDS011;63149;48.086;-1.606;2023-04-24T05:13:32;12.10;;;5.18;;
39276;SDS011;63149;48.086;-1.606;2023-04-24T05:16:00;16.75;;;4.80;;
39276;SDS011;63149;48.086;-1.606;2023-04-24T05:18:29;13.98;;;4.88;;
39276;SDS011;63149;48.086;-1.606;2023-04-24T05:20:56;14.65;;;5.05;;
39276;SDS011;63149;48.086;-1.606;2023-04-24T05:23:23;10.73;;;4.82;;
39276;SDS011;63149;48.086;-1.606;2023-04-24T05:25:50;15.60;;;4.88;;
39276;SDS011;63149;48.086;-1.606;2023-04-24T05:28:18;9.93;;;4.75;;
39276;SDS011;63149;48.086;-1.606;2023-04-24T05:30:45;10.38;;;4.18;;
39276;SDS011;63149;48.086;-1.606;2023-04-24T05:33:13;9.82;;;4.88;;
39276;SDS011;63149;48.086;-1.606;2023-04-24T05:35:41;12.10;;;4.43;;
39276;SDS011;63149;48.086;-1.606;2023-04-24T05:38:10;9.60;;;4.72;;
39276;SDS011;63149;48.086;-1.606;2023-04-24T05:40:38;10.68;;;4.30;;
39276;SDS011;63149;48.086;-1.606;2023-04-24T05:43:05;10.52;;;4.60;;
39276;SDS011;63149;48.086;-1.606;2023-04-24T05:45:32;8.90;;;4.70;;
39276;SDS011;63149;48.086;-1.606;2023-04-24T05:48:01;8.93;;;4.18;;
39276;SDS011;63149;48.086;-1.606;2023-04-24T05:50:28;12.02;;;4.60;;
39276;SDS011;63149;48.086;-1.606;2023-04-24T05:52:57;10.70;;;4.63;;
39276;SDS011;63149;48.086;-1.606;2023-04-24T05:55:24;7.60;;;4.07;;
39276;SDS011;63149;48.086;-1.606;2023-04-24T05:57:51;6.97;;;3.95;;
39276;SDS011;63149;48.086;-1.606;2023-04-24T06:00:19;11.40;;;4.90;;
39276;SDS011;63149;48.086;-1.606;2023-04-24T06:02:46;11.95;;;5.15;;
39276;SDS011;63149;48.086;-1.606;2023-04-24T06:05:14;10.95;;;4.80;;
39276;SDS011;63149;48.086;-1.606;2023-04-24T06:07:41;13.00;;;5.45;;
39276;SDS011;63149;48.086;-1.606;2023-04-24T06:10:10;10.30;;;5.43;;
39276;SDS011;63149;48.086;-1.606;2023-04-24T06:12:37;12.75;;;4.88;;
39276;SDS011;63149;48.086;-1.606;2023-04-24T06:15:05;11.63;;;4.82;;
39276;SDS011;63149;48.086;-1.606;2023-04-24T06:17:33;9.27;;;4.57;;
39276;SDS011;63149;48.086;-1.606;2023-04-24T06:20:00;11.15;;;5.13;;
39276;SDS011;63149;48.086;-1.606;2023-04-24T06:22:29;10.77;;;4.78;;
39276;SDS011;63149;48.086;-1.606;2023-04-24T06:24:56;16.00;;;5.20;;
39276;SDS011;63149;48.086;-1.606;2023-04-24T06:27:25;12.43;;;5.43;;
39276;SDS011;63149;48.086;-1.606;2023-04-24T06:29:52;15.38;;;5.80;;
39276;SDS011;63149;48.086;-1.606;2023-04-24T06:32:21;16.35;;;6.22;;
39276;SDS011;63149;48.086;-1.606;2023-04-24T06:34:48;11.57;;;5.15;;
39276;SDS011;63149;48.086;-1.606;2023-04-24T06:37:15;13.40;;;5.22;;
39276;SDS011;63149;48.086;-1.606;2023-04-24T06:39:42;11.15;;;4.75;;
39276;SDS011;63149;48.086;-1.606;2023-04-24T06:42:10;9.55;;;5.00;;
39276;SDS011;63149;48.086;-1.606;2023-04-24T06:44:38;14.85;;;5.40;;
39276;SDS011;63149;48.086;-1.606;2023-04-24T06:47:06;19.58;;;5.57;;
39276;SDS011;63149;48.086;-1.606;2023-04-24T06:49:34;10.93;;;4.75;;
39276;SDS011;63149;48.086;-1.606;2023-04-24T06:52:01;11.68;;;5.35;;
39276;SDS011;63149;48.086;-1.606;2023-04-24T06:54:29;13.02;;;5.93;;
39276;SDS011;63149;48.086;-1.606;2023-04-24T06:56:56;12.20;;;5.50;;
39276;SDS011;63149;48.086;-1.606;2023-04-24T06:59:23;9.70;;;5.40;;
39276;SDS011;63149;48.086;-1.606;2023-04-24T07:01:52;13.40;;;4.55;;
39276;SDS011;63149;48.086;-1.606;2023-04-24T07:04:19;11.48;;;5.00;;
39276;SDS011;63149;48.086;-1.606;2023-04-24T07:06:47;13.65;;;5.28;;
39276;SDS011;63149;48.086;-1.606;2023-04-24T07:09:16;9.40;;;5.07;;
39276;SDS011;63149;48.086;-1.606;2023-04-24T07:11:44;10.75;;;4.97;;
39276;SDS011;63149;48.086;-1.606;2023-04-24T07:14:11;9.70;;;4.63;;
39276;SDS011;63149;48.086;-1.606;2023-04-24T07:16:39;12.20;;;5.20;;
39276;SDS011;63149;48.086;-1.606;2023-04-24T07:19:07;11.60;;;4.30;;
39276;SDS011;63149;48.086;-1.606;2023-04-24T07:21:34;11.63;;;5.40;;
39276;SDS011;63149;48.086;-1.606;2023-04-24T07:24:02;9.20;;;4.95;;
39276;SDS011;63149;48.086;-1.606;2023-04-24T07:26:29;11.90;;;4.60;;
39276;SDS011;63149;48.086;-1.606;2023-04-24T07:28:57;10.18;;;4.93;;
39276;SDS011;63149;48.086;-1.606;2023-04-24T07:31:24;7.25;;;4.35;;
39276;SDS011;63149;48.086;-1.606;2023-04-24T07:33:51;7.75;;;4.53;;
39276;SDS011;63149;48.086;-1.606;2023-04-24T07:36:20;12.95;;;4.88;;
39276;SDS011;63149;48.086;-1.606;2023-04-24T07:38:47;11.20;;;4.68;;
39276;SDS011;63149;48.086;-1.606;2023-04-24T07:41:14;10.95;;;4.72;;
39276;SDS011;63149;48.086;-1.606;2023-04-24T07:43:41;8.80;;;4.22;;
39276;SDS011;63149;48.086;-1.606;2023-04-24T07:46:09;7.20;;;4.13;;
39276;SDS011;63149;48.086;-1.606;2023-04-24T07:48:36;9.85;;;4.22;;
39276;SDS011;63149;48.086;-1.606;2023-04-24T07:51:03;9.73;;;4.43;;
39276;SDS011;63149;48.086;-1.606;2023-04-24T07:53:32;10.50;;;4.43;;
39276;SDS011;63149;48.086;-1.606;2023-04-24T07:55:59;7.90;;;4.05;;
39276;SDS011;63149;48.086;-1.606;2023-04-24T07:58:26;9.52;;;3.63;;
39276;SDS011;63149;48.086;-1.606;2023-04-24T08:00:54;8.20;;;4.00;;
39276;SDS011;63149;48.086;-1.606;2023-04-24T08:03:21;8.48;;;4.30;;
39276;SDS011;63149;48.086;-1.606;2023-04-24T08:05:49;8.77;;;4.60;;
39276;SDS011;63149;48.086;-1.606;2023-04-24T08:08:17;10.48;;;4.70;;
39276;SDS011;63149;48.086;-1.606;2023-04-24T08:10:45;5.75;;;3.50;;
39276;SDS011;63149;48.086;-1.606;2023-04-24T08:13:13;9.90;;;3.80;;
39276;SDS011;63149;48.086;-1.606;2023-04-24T08:15:40;6.47;;;3.80;;
39276;SDS011;63149;48.086;-1.606;2023-04-24T08:18:07;8.05;;;3.90;;
39276;SDS011;63149;48.086;-1.606;2023-04-24T08:20:36;8.30;;;4.13;;
39276;SDS011;63149;48.086;-1.606;2023-04-24T08:23:04;8.50;;;4.00;;
39276;SDS011;63149;48.086;-1.606;2023-04-24T08:25:31;6.00;;;3.35;;
39276;SDS011;63149;48.086;-1.606;2023-04-24T08:28:01;9.82;;;3.80;;
39276;SDS011;63149;48.086;-1.606;2023-04-24T08:30:29;6.15;;;3.45;;
39276;SDS011;63149;48.086;-1.606;2023-04-24T08:32:56;8.55;;;3.75;;
39276;SDS011;63149;48.086;-1.606;2023-04-24T08:35:23;12.13;;;4.25;;
39276;SDS011;63149;48.086;-1.606;2023-04-24T08:37:51;7.80;;;3.80;;
39276;SDS011;63149;48.086;-1.606;2023-04-24T08:40:20;7.45;;;3.17;;
39276;SDS011;63149;48.086;-1.606;2023-04-24T08:42:49;7.45;;;4.22;;
39276;SDS011;63149;48.086;-1.606;2023-04-24T08:45:18;6.80;;;3.40;;
39276;SDS011;63149;48.086;-1.606;2023-04-24T08:47:46;6.13;;;3.40;;
39276;SDS011;63149;48.086;-1.606;2023-04-24T08:50:14;9.55;;;3.90;;
39276;SDS011;63149;48.086;-1.606;2023-04-24T08:52:41;9.55;;;3.67;;
39276;SDS011;63149;48.086;-1.606;2023-04-24T08:55:09;4.55;;;3.10;;
39276;SDS011;63149;48.086;-1.606;2023-04-24T08:57:36;4.72;;;4.03;;
39276;SDS011;63149;48.086;-1.606;2023-04-24T09:00:05;6.13;;;3.88;;
39276;SDS011;63149;48.086;-1.606;2023-04-24T09:02:34;6.85;;;3.85;;
39276;SDS011;63149;48.086;-1.606;2023-04-24T09:05:02;5.80;;;3.58;;
39276;SDS011;63149;48.086;-1.606;2023-04-24T09:07:30;5.35;;;2.88;;
39276;SDS011;63149;48.086;-1.606;2023-04-24T09:10:01;5.07;;;3.50;;
39276;SDS011;63149;48.086;-1.606;2023-04-24T09:12:28;8.63;;;3.20;;
39276;SDS011;63149;48.086;-1.606;2023-04-24T09:14:56;8.60;;;3.15;;
39276;SDS011;63149;48.086;-1.606;2023-04-24T09:17:23;5.60;;;2.97;;
39276;SDS011;63149;48.086;-1.606;2023-04-24T09:19:54;10.63;;;3.90;;
39276;SDS011;63149;48.086;-1.606;2023-04-24T09:22:22;12.73;;;3.50;;
39276;SDS011;63149;48.086;-1.606;2023-04-24T09:24:51;9.73;;;2.95;;
39276;SDS011;63149;48.086;-1.606;2023-04-24T09:27:27;9.75;;;2.97;;
39276;SDS011;63149;48.086;-1.606;2023-04-24T09:29:55;8.75;;;3.40;;
39276;SDS011;63149;48.086;-1.606;2023-04-24T09:32:22;9.55;;;2.90;;
39276;SDS011;63149;48.086;-1.606;2023-04-24T09:35:04;11.68;;;3.30;;
39276;SDS011;63149;48.086;-1.606;2023-04-24T09:37:34;10.13;;;3.10;;
39276;SDS011;63149;48.086;-1.606;2023-04-24T09:40:15;7.70;;;2.83;;
39276;SDS011;63149;48.086;-1.606;2023-04-24T09:42:46;8.90;;;3.63;;
39276;SDS011;63149;48.086;-1.606;2023-04-24T09:45:13;13.05;;;3.10;;
39276;SDS011;63149;48.086;-1.606;2023-04-24T09:47:41;14.73;;;3.58;;
39276;SDS011;63149;48.086;-1.606;2023-04-24T09:50:09;14.43;;;3.47;;
39276;SDS011;63149;48.086;-1.606;2023-04-24T09:52:40;7.57;;;3.15;;
39276;SDS011;63149;48.086;-1.606;2023-04-24T09:55:16;8.48;;;3.50;;
39276;SDS011;63149;48.086;-1.606;2023-04-24T09:57:50;13.13;;;3.95;;
39276;SDS011;63149;48.086;-1.606;2023-04-24T10:00:19;15.73;;;3.80;;
39276;SDS011;63149;48.086;-1.606;2023-04-24T10:02:49;16.38;;;4.03;;
39276;SDS011;63149;48.086;-1.606;2023-04-24T10:05:17;8.57;;;3.05;;
39276;SDS011;63149;48.086;-1.606;2023-04-24T10:07:47;11.13;;;3.25;;
39276;SDS011;63149;48.086;-1.606;2023-04-24T10:10:14;8.27;;;3.33;;
39276;SDS011;63149;48.086;-1.606;2023-04-24T10:12:41;13.77;;;3.70;;
39276;SDS011;63149;48.086;-1.606;2023-04-24T10:15:10;11.23;;;4.07;;
39276;SDS011;63149;48.086;-1.606;2023-04-24T10:17:39;12.63;;;3.63;;
39276;SDS011;63149;48.086;-1.606;2023-04-24T10:20:06;11.32;;;4.00;;
39276;SDS011;63149;48.086;-1.606;2023-04-24T10:22:34;15.20;;;4.15;;
39276;SDS011;63149;48.086;-1.606;2023-04-24T10:25:04;10.25;;;3.72;;
39276;SDS011;63149;48.086;-1.606;2023-04-24T10:27:32;9.27;;;2.33;;
39276;SDS011;63149;48.086;-1.606;2023-04-24T10:30:01;14.93;;;3.38;;
39276;SDS011;63149;48.086;-1.606;2023-04-24T10:32:29;9.80;;;3.50;;
39276;SDS011;63149;48.086;-1.606;2023-04-24T10:34:56;8.82;;;3.35;;
39276;SDS011;63149;48.086;-1.606;2023-04-24T10:37:24;8.93;;;3.00;;
39276;SDS011;63149;48.086;-1.606;2023-04-24T10:39:52;9.85;;;3.05;;
39276;SDS011;63149;48.086;-1.606;2023-04-24T10:42:22;9.23;;;3.38;;
39276;SDS011;63149;48.086;-1.606;2023-04-24T10:44:49;10.65;;;3.53;;
39276;SDS011;63149;48.086;-1.606;2023-04-24T10:47:17;10.73;;;3.15;;
39276;SDS011;63149;48.086;-1.606;2023-04-24T10:49:44;8.90;;;3.42;;
39276;SDS011;63149;48.086;-1.606;2023-04-24T10:52:11;13.80;;;3.33;;
39276;SDS011;63149;48.086;-1.606;2023-04-24T10:54:41;11.70;;;3.17;;
39276;SDS011;63149;48.086;-1.606;2023-04-24T10:57:28;11.77;;;3.45;;
39276;SDS011;63149;48.086;-1.606;2023-04-24T11:00:10;10.20;;;3.50;;
39276;SDS011;63149;48.086;-1.606;2023-04-24T11:02:39;11.88;;;3.30;;
39276;SDS011;63149;48.086;-1.606;2023-04-24T11:05:13;10.20;;;3.42;;
39276;SDS011;63149;48.086;-1.606;2023-04-24T11:10:27;13.30;;;4.82;;
39276;SDS011;63149;48.086;-1.606;2023-04-24T11:12:55;15.93;;;5.75;;
39276;SDS011;63149;48.086;-1.606;2023-04-24T11:15:23;17.95;;;8.40;;
39276;SDS011;63149;48.086;-1.606;2023-04-24T11:17:50;14.07;;;4.63;;
39276;SDS011;63149;48.086;-1.606;2023-04-24T11:20:22;10.98;;;3.25;;
39276;SDS011;63149;48.086;-1.606;2023-04-24T11:22:52;12.32;;;2.95;;
39276;SDS011;63149;48.086;-1.606;2023-04-24T11:25:20;9.68;;;3.25;;
39276;SDS011;63149;48.086;-1.606;2023-04-24T11:27:48;14.40;;;4.65;;
39276;SDS011;63149;48.086;-1.606;2023-04-24T11:30:18;11.68;;;3.08;;
39276;SDS011;63149;48.086;-1.606;2023-04-24T11:32:47;7.75;;;2.67;;
39276;SDS011;63149;48.086;-1.606;2023-04-24T11:35:15;8.43;;;3.13;;
39276;SDS011;63149;48.086;-1.606;2023-04-24T11:37:43;12.75;;;3.22;;
39276;SDS011;63149;48.086;-1.606;2023-04-24T11:40:12;8.32;;;2.65;;
39276;SDS011;63149;48.086;-1.606;2023-04-24T11:42:41;10.23;;;2.65;;
39276;SDS011;63149;48.086;-1.606;2023-04-24T11:45:09;8.65;;;2.70;;
39276;SDS011;63149;48.086;-1.606;2023-04-24T11:47:39;9.93;;;3.25;;
39276;SDS011;63149;48.086;-1.606;2023-04-24T11:50:07;15.95;;;3.17;;
39276;SDS011;63149;48.086;-1.606;2023-04-24T11:52:36;15.68;;;4.18;;
39276;SDS011;63149;48.086;-1.606;2023-04-24T11:55:05;9.02;;;2.72;;
39276;SDS011;63149;48.086;-1.606;2023-04-24T11:57:33;8.80;;;2.58;;
39276;SDS011;63149;48.086;-1.606;2023-04-24T12:00:02;12.98;;;4.28;;
39276;SDS011;63149;48.086;-1.606;2023-04-24T12:02:30;9.00;;;2.30;;
39276;SDS011;63149;48.086;-1.606;2023-04-24T12:04:58;6.18;;;2.65;;
39276;SDS011;63149;48.086;-1.606;2023-04-24T12:07:26;8.95;;;2.40;;
39276;SDS011;63149;48.086;-1.606;2023-04-24T12:09:56;4.72;;;2.15;;
39276;SDS011;63149;48.086;-1.606;2023-04-24T12:12:25;15.18;;;3.55;;
39276;SDS011;63149;48.086;-1.606;2023-04-24T12:14:53;7.72;;;3.00;;
39276;SDS011;63149;48.086;-1.606;2023-04-24T12:17:24;6.40;;;2.25;;
39276;SDS011;63149;48.086;-1.606;2023-04-24T12:19:52;6.13;;;2.60;;
39276;SDS011;63149;48.086;-1.606;2023-04-24T12:22:20;8.45;;;2.88;;
39276;SDS011;63149;48.086;-1.606;2023-04-24T12:25:00;8.30;;;2.88;;
39276;SDS011;63149;48.086;-1.606;2023-04-24T12:27:29;6.68;;;2.88;;
39276;SDS011;63149;48.086;-1.606;2023-04-24T12:29:57;10.38;;;2.58;;
39276;SDS011;63149;48.086;-1.606;2023-04-24T12:32:24;9.98;;;3.20;;
39276;SDS011;63149;48.086;-1.606;2023-04-24T12:34:52;9.80;;;3.85;;
39276;SDS011;63149;48.086;-1.606;2023-04-24T12:37:21;7.90;;;3.10;;
39276;SDS011;63149;48.086;-1.606;2023-04-24T12:39:59;8.57;;;3.45;;
39276;SDS011;63149;48.086;-1.606;2023-04-24T12:42:26;9.27;;;3.97;;
39276;SDS011;63149;48.086;-1.606;2023-04-24T12:44:56;10.98;;;2.78;;
39276;SDS011;63149;48.086;-1.606;2023-04-24T12:47:24;71.28;;;5.80;;
39276;SDS011;63149;48.086;-1.606;2023-04-24T12:49:51;11.60;;;3.17;;
39276;SDS011;63149;48.086;-1.606;2023-04-24T12:52:21;5.75;;;3.22;;
39276;SDS011;63149;48.086;-1.606;2023-04-24T12:54:49;11.85;;;3.50;;
39276;SDS011;63149;48.086;-1.606;2023-04-24T12:57:17;9.88;;;3.20;;
39276;SDS011;63149;48.086;-1.606;2023-04-24T12:59:44;8.30;;;2.95;;
39276;SDS011;63149;48.086;-1.606;2023-04-24T13:02:12;7.85;;;2.50;;
39276;SDS011;63149;48.086;-1.606;2023-04-24T13:04:42;10.75;;;2.90;;
39276;SDS011;63149;48.086;-1.606;2023-04-24T13:07:09;6.75;;;2.95;;
39276;SDS011;63149;48.086;-1.606;2023-04-24T13:09:39;8.85;;;3.10;;
39276;SDS011;63149;48.086;-1.606;2023-04-24T13:12:06;7.93;;;2.63;;
39276;SDS011;63149;48.086;-1.606;2023-04-24T13:14:33;7.18;;;3.17;;
39276;SDS011;63149;48.086;-1.606;2023-04-24T13:17:01;8.68;;;3.30;;
39276;SDS011;63149;48.086;-1.606;2023-04-24T13:19:29;10.82;;;3.10;;
39276;SDS011;63149;48.086;-1.606;2023-04-24T13:21:56;5.75;;;2.90;;
39276;SDS011;63149;48.086;-1.606;2023-04-24T13:24:24;5.32;;;2.55;;
39276;SDS011;63149;48.086;-1.606;2023-04-24T13:26:53;6.68;;;2.88;;
39276;SDS011;63149;48.086;-1.606;2023-04-24T13:29:21;7.57;;;2.85;;
39276;SDS011;63149;48.086;-1.606;2023-04-24T13:31:49;8.50;;;2.88;;
39276;SDS011;63149;48.086;-1.606;2023-04-24T13:34:16;9.82;;;3.17;;
39276;SDS011;63149;48.086;-1.606;2023-04-24T13:36:44;8.60;;;2.50;;
39276;SDS011;63149;48.086;-1.606;2023-04-24T13:39:11;7.20;;;2.80;;
39276;SDS011;63149;48.086;-1.606;2023-04-24T13:41:38;4.38;;;2.25;;
39276;SDS011;63149;48.086;-1.606;2023-04-24T13:44:07;9.20;;;2.63;;
39276;SDS011;63149;48.086;-1.606;2023-04-24T13:46:35;9.40;;;2.50;;
39276;SDS011;63149;48.086;-1.606;2023-04-24T13:49:02;5.30;;;2.30;;
39276;SDS011;63149;48.086;-1.606;2023-04-24T13:51:29;5.63;;;2.17;;
39276;SDS011;63149;48.086;-1.606;2023-04-24T13:53:57;8.20;;;2.25;;
39276;SDS011;63149;48.086;-1.606;2023-04-24T13:56:24;7.65;;;2.80;;
39276;SDS011;63149;48.086;-1.606;2023-04-24T13:58:52;7.47;;;2.78;;
39276;SDS011;63149;48.086;-1.606;2023-04-24T14:01:21;8.52;;;2.55;;
39276;SDS011;63149;48.086;-1.606;2023-04-24T14:03:49;7.00;;;2.35;;
39276;SDS011;63149;48.086;-1.606;2023-04-24T14:06:17;12.75;;;2.50;;
39276;SDS011;63149;48.086;-1.606;2023-04-24T14:08:44;8.40;;;3.33;;
39276;SDS011;63149;48.086;-1.606;2023-04-24T14:11:12;7.15;;;2.42;;
39276;SDS011;63149;48.086;-1.606;2023-04-24T14:13:40;10.10;;;3.33;;
39276;SDS011;63149;48.086;-1.606;2023-04-24T14:16:07;5.45;;;2.75;;
39276;SDS011;63149;48.086;-1.606;2023-04-24T14:18:36;8.02;;;2.97;;
39276;SDS011;63149;48.086;-1.606;2023-04-24T14:21:03;6.85;;;2.80;;
39276;SDS011;63149;48.086;-1.606;2023-04-24T14:23:31;6.20;;;2.70;;
39276;SDS011;63149;48.086;-1.606;2023-04-24T14:25:58;8.90;;;3.10;;
39276;SDS011;63149;48.086;-1.606;2023-04-24T14:28:25;4.53;;;2.63;;
39276;SDS011;63149;48.086;-1.606;2023-04-24T14:30:53;13.98;;;3.63;;
39276;SDS011;63149;48.086;-1.606;2023-04-24T14:33:20;9.55;;;3.00;;
39276;SDS011;63149;48.086;-1.606;2023-04-24T14:35:49;11.80;;;3.70;;
39276;SDS011;63149;48.086;-1.606;2023-04-24T14:38:16;18.33;;;3.88;;
39276;SDS011;63149;48.086;-1.606;2023-04-24T14:40:43;13.52;;;3.78;;
39276;SDS011;63149;48.086;-1.606;2023-04-24T14:43:10;9.85;;;3.95;;
39276;SDS011;63149;48.086;-1.606;2023-04-24T14:45:38;8.43;;;3.58;;
39276;SDS011;63149;48.086;-1.606;2023-04-24T14:48:06;11.77;;;4.45;;
39276;SDS011;63149;48.086;-1.606;2023-04-24T14:50:34;12.55;;;3.72;;
39276;SDS011;63149;48.086;-1.606;2023-04-24T14:53:02;6.78;;;3.55;;
39276;SDS011;63149;48.086;-1.606;2023-04-24T14:55:30;12.05;;;4.15;;
39276;SDS011;63149;48.086;-1.606;2023-04-24T14:57:59;10.60;;;3.63;;
39276;SDS011;63149;48.086;-1.606;2023-04-24T15:00:26;7.97;;;3.25;;
39276;SDS011;63149;48.086;-1.606;2023-04-24T15:02:53;6.90;;;3.35;;
39276;SDS011;63149;48.086;-1.606;2023-04-24T15:05:21;9.90;;;3.47;;
39276;SDS011;63149;48.086;-1.606;2023-04-24T15:07:49;8.70;;;3.70;;
39276;SDS011;63149;48.086;-1.606;2023-04-24T15:10:18;8.43;;;4.25;;
39276;SDS011;63149;48.086;-1.606;2023-04-24T15:12:47;6.95;;;3.92;;
39276;SDS011;63149;48.086;-1.606;2023-04-24T15:15:15;7.85;;;3.55;;
39276;SDS011;63149;48.086;-1.606;2023-04-24T15:17:42;10.25;;;3.35;;
39276;SDS011;63149;48.086;-1.606;2023-04-24T15:20:10;5.78;;;3.03;;
39276;SDS011;63149;48.086;-1.606;2023-04-24T15:22:37;10.52;;;3.22;;
39276;SDS011;63149;48.086;-1.606;2023-04-24T15:25:05;8.65;;;3.05;;
39276;SDS011;63149;48.086;-1.606;2023-04-24T15:27:40;9.88;;;3.53;;
39276;SDS011;63149;48.086;-1.606;2023-04-24T15:30:08;8.40;;;2.95;;
39276;SDS011;63149;48.086;-1.606;2023-04-24T15:32:35;8.25;;;3.67;;
39276;SDS011;63149;48.086;-1.606;2023-04-24T15:35:03;9.18;;;2.60;;
39276;SDS011;63149;48.086;-1.606;2023-04-24T15:37:30;6.55;;;2.60;;
39276;SDS011;63149;48.086;-1.606;2023-04-24T15:39:57;5.57;;;2.67;;
39276;SDS011;63149;48.086;-1.606;2023-04-24T15:42:25;9.88;;;2.50;;
39276;SDS011;63149;48.086;-1.606;2023-04-24T15:44:54;5.15;;;2.40;;
39276;SDS011;63149;48.086;-1.606;2023-04-24T15:47:21;6.13;;;2.72;;
39276;SDS011;63149;48.086;-1.606;2023-04-24T15:49:48;6.53;;;2.60;;
39276;SDS011;63149;48.086;-1.606;2023-04-24T15:52:16;5.47;;;2.50;;
39276;SDS011;63149;48.086;-1.606;2023-04-24T15:54:43;7.60;;;3.17;;
39276;SDS011;63149;48.086;-1.606;2023-04-24T15:57:10;6.43;;;2.60;;
39276;SDS011;63149;48.086;-1.606;2023-04-24T15:59:38;8.10;;;2.85;;
39276;SDS011;63149;48.086;-1.606;2023-04-24T16:02:07;10.63;;;3.00;;
39276;SDS011;63149;48.086;-1.606;2023-04-24T16:04:35;10.35;;;2.83;;
39276;SDS011;63149;48.086;-1.606;2023-04-24T16:07:03;5.85;;;2.25;;
39276;SDS011;63149;48.086;-1.606;2023-04-24T16:09:30;8.10;;;3.33;;
39276;SDS011;63149;48.086;-1.606;2023-04-24T16:11:57;11.43;;;3.30;;
39276;SDS011;63149;48.086;-1.606;2023-04-24T16:14:25;8.02;;;2.78;;
39276;SDS011;63149;48.086;-1.606;2023-04-24T16:16:52;4.00;;;2.47;;
39276;SDS011;63149;48.086;-1.606;2023-04-24T16:19:21;12.02;;;2.97;;
39276;SDS011;63149;48.086;-1.606;2023-04-24T16:21:49;9.65;;;3.08;;
39276;SDS011;63149;48.086;-1.606;2023-04-24T16:24:18;14.82;;;2.85;;
39276;SDS011;63149;48.086;-1.606;2023-04-24T16:26:45;4.55;;;3.10;;
39276;SDS011;63149;48.086;-1.606;2023-04-24T16:29:13;8.40;;;2.80;;
39276;SDS011;63149;48.086;-1.606;2023-04-24T16:31:40;5.70;;;2.53;;
39276;SDS011;63149;48.086;-1.606;2023-04-24T16:34:08;5.00;;;2.50;;
39276;SDS011;63149;48.086;-1.606;2023-04-24T16:36:36;7.45;;;2.25;;
39276;SDS011;63149;48.086;-1.606;2023-04-24T16:39:04;5.82;;;2.05;;
39276;SDS011;63149;48.086;-1.606;2023-04-24T16:41:31;5.28;;;2.10;;
39276;SDS011;63149;48.086;-1.606;2023-04-24T16:43:58;4.93;;;2.47;;
39276;SDS011;63149;48.086;-1.606;2023-04-24T16:46:25;6.57;;;2.35;;
39276;SDS011;63149;48.086;-1.606;2023-04-24T16:48:53;8.70;;;2.83;;
39276;SDS011;63149;48.086;-1.606;2023-04-24T16:51:20;9.45;;;3.05;;
39276;SDS011;63149;48.086;-1.606;2023-04-24T16:53:49;8.82;;;2.78;;
39276;SDS011;63149;48.086;-1.606;2023-04-24T16:56:16;5.47;;;2.55;;
39276;SDS011;63149;48.086;-1.606;2023-04-24T16:58:43;5.88;;;2.83;;
39276;SDS011;63149;48.086;-1.606;2023-04-24T17:01:11;5.53;;;2.58;;
39276;SDS011;63149;48.086;-1.606;2023-04-24T17:03:38;7.35;;;3.35;;
39276;SDS011;63149;48.086;-1.606;2023-04-24T17:06:05;9.32;;;3.03;;
39276;SDS011;63149;48.086;-1.606;2023-04-24T17:08:33;8.70;;;3.20;;
39276;SDS011;63149;48.086;-1.606;2023-04-24T17:11:01;9.02;;;4.28;;
39276;SDS011;63149;48.086;-1.606;2023-04-24T17:13:28;11.70;;;3.30;;
39276;SDS011;63149;48.086;-1.606;2023-04-24T17:15:56;8.65;;;2.78;;
39276;SDS011;63149;48.086;-1.606;2023-04-24T17:18:24;7.00;;;2.75;;
39276;SDS011;63149;48.086;-1.606;2023-04-24T17:20:51;10.43;;;3.10;;
39276;SDS011;63149;48.086;-1.606;2023-04-24T17:23:19;9.32;;;3.05;;
39276;SDS011;63149;48.086;-1.606;2023-04-24T17:25:46;9.60;;;2.78;;
39276;SDS011;63149;48.086;-1.606;2023-04-24T17:28:20;9.98;;;4.40;;
39276;SDS011;63149;48.086;-1.606;2023-04-24T17:30:49;12.10;;;5.22;;
39276;SDS011;63149;48.086;-1.606;2023-04-24T17:33:19;9.20;;;3.85;;
39276;SDS011;63149;48.086;-1.606;2023-04-24T17:35:46;9.85;;;3.40;;
39276;SDS011;63149;48.086;-1.606;2023-04-24T17:38:14;11.32;;;4.55;;
39276;SDS011;63149;48.086;-1.606;2023-04-24T17:40:41;12.02;;;3.92;;
39276;SDS011;63149;48.086;-1.606;2023-04-24T17:43:10;10.43;;;4.00;;
39276;SDS011;63149;48.086;-1.606;2023-04-24T17:45:43;7.63;;;3.95;;
39276;SDS011;63149;48.086;-1.606;2023-04-24T17:48:10;7.20;;;2.95;;
39276;SDS011;63149;48.086;-1.606;2023-04-24T17:50:38;7.72;;;3.58;;
39276;SDS011;63149;48.086;-1.606;2023-04-24T17:53:05;9.27;;;4.18;;
39276;SDS011;63149;48.086;-1.606;2023-04-24T17:55:33;11.57;;;3.92;;
39276;SDS011;63149;48.086;-1.606;2023-04-24T17:58:00;5.85;;;3.00;;
39276;SDS011;63149;48.086;-1.606;2023-04-24T18:00:28;11.35;;;4.10;;
39276;SDS011;63149;48.086;-1.606;2023-04-24T18:02:56;8.68;;;3.55;;
39276;SDS011;63149;48.086;-1.606;2023-04-24T18:05:25;9.15;;;4.88;;
39276;SDS011;63149;48.086;-1.606;2023-04-24T18:07:52;11.30;;;4.35;;
39276;SDS011;63149;48.086;-1.606;2023-04-24T18:10:20;12.07;;;4.78;;
39276;SDS011;63149;48.086;-1.606;2023-04-24T18:12:47;8.35;;;4.40;;
39276;SDS011;63149;48.086;-1.606;2023-04-24T18:15:14;11.75;;;4.47;;
39276;SDS011;63149;48.086;-1.606;2023-04-24T18:17:42;10.18;;;4.05;;
39276;SDS011;63149;48.086;-1.606;2023-04-24T18:20:11;9.82;;;5.18;;
39276;SDS011;63149;48.086;-1.606;2023-04-24T18:22:39;7.78;;;3.85;;
39276;SDS011;63149;48.086;-1.606;2023-04-24T18:25:06;9.80;;;4.05;;
39276;SDS011;63149;48.086;-1.606;2023-04-24T18:27:34;8.88;;;4.35;;
39276;SDS011;63149;48.086;-1.606;2023-04-24T18:30:01;8.38;;;4.45;;
39276;SDS011;63149;48.086;-1.606;2023-04-24T18:32:28;17.63;;;4.82;;
39276;SDS011;63149;48.086;-1.606;2023-04-24T18:34:55;8.07;;;4.63;;
39276;SDS011;63149;48.086;-1.606;2023-04-24T18:37:24;15.38;;;6.13;;
39276;SDS011;63149;48.086;-1.606;2023-04-24T18:39:51;11.57;;;5.95;;
39276;SDS011;63149;48.086;-1.606;2023-04-24T18:42:20;11.45;;;5.10;;
39276;SDS011;63149;48.086;-1.606;2023-04-24T18:44:47;15.57;;;6.25;;
39276;SDS011;63149;48.086;-1.606;2023-04-24T18:47:15;12.52;;;5.53;;
39276;SDS011;63149;48.086;-1.606;2023-04-24T18:49:42;11.80;;;4.78;;
39276;SDS011;63149;48.086;-1.606;2023-04-24T18:52:10;8.93;;;4.88;;
39276;SDS011;63149;48.086;-1.606;2023-04-24T18:54:38;10.95;;;4.40;;
39276;SDS011;63149;48.086;-1.606;2023-04-24T18:57:06;11.20;;;4.65;;
39276;SDS011;63149;48.086;-1.606;2023-04-24T18:59:33;12.40;;;5.35;;
39276;SDS011;63149;48.086;-1.606;2023-04-24T19:02:00;12.75;;;4.50;;
39276;SDS011;63149;48.086;-1.606;2023-04-24T19:04:27;14.70;;;5.68;;
39276;SDS011;63149;48.086;-1.606;2023-04-24T19:06:55;13.88;;;5.28;;
39276;SDS011;63149;48.086;-1.606;2023-04-24T19:09:22;13.88;;;4.53;;
39276;SDS011;63149;48.086;-1.606;2023-04-24T19:11:50;10.00;;;4.00;;
39276;SDS011;63149;48.086;-1.606;2023-04-24T19:14:18;8.55;;;3.75;;
39276;SDS011;63149;48.086;-1.606;2023-04-24T19:16:46;6.35;;;3.08;;
39276;SDS011;63149;48.086;-1.606;2023-04-24T19:19:14;6.47;;;3.40;;
39276;SDS011;63149;48.086;-1.606;2023-04-24T19:21:41;7.75;;;3.15;;
39276;SDS011;63149;48.086;-1.606;2023-04-24T19:24:08;4.82;;;3.30;;
39276;SDS011;63149;48.086;-1.606;2023-04-24T19:26:35;6.93;;;3.72;;
39276;SDS011;63149;48.086;-1.606;2023-04-24T19:29:04;5.85;;;3.22;;
39276;SDS011;63149;48.086;-1.606;2023-04-24T19:31:31;5.53;;;3.75;;
39276;SDS011;63149;48.086;-1.606;2023-04-24T19:33:58;5.10;;;3.38;;
39276;SDS011;63149;48.086;-1.606;2023-04-24T19:36:26;9.50;;;3.78;;